createdAt,value
2022-09-10T00:01:32.218Z,6.82
2022-09-10T00:04:02.032Z,7.15
2022-09-10T00:06:33.165Z,7.07
2022-09-10T00:09:02.280Z,7.18
2022-09-10T00:11:31.093Z,6.50
2022-09-10T00:14:01.965Z,7.35
2022-09-10T00:16:30.997Z,6.80
2022-09-10T00:19:00.147Z,6.13
2022-09-10T00:21:30.040Z,6.18
2022-09-10T00:23:58.569Z,6.15
2022-09-10T00:26:28.660Z,5.60
2022-09-10T00:28:59.585Z,6.40
2022-09-10T00:31:30.455Z,6.80
2022-09-10T00:33:59.934Z,6.35
2022-09-10T00:36:30.526Z,5.88
2022-09-10T00:39:02.467Z,5.80
2022-09-10T00:41:31.569Z,5.68
2022-09-10T00:44:02.368Z,6.10
2022-09-10T00:46:36.481Z,5.93
2022-09-10T00:49:11.170Z,5.03
2022-09-10T00:51:40.456Z,4.97
2022-09-10T00:54:09.451Z,3.88
2022-09-10T00:56:39.122Z,3.33
2022-09-10T00:59:10.387Z,3.40
2022-09-10T01:01:42.100Z,2.65
2022-09-10T01:04:10.938Z,2.95
2022-09-10T01:06:41.640Z,2.70
2022-09-10T01:09:10.960Z,2.33
2022-09-10T01:12:03.727Z,2.30
2022-09-10T01:14:49.072Z,2.78
2022-09-10T01:17:26.961Z,2.88
2022-09-10T01:20:22.027Z,2.55
2022-09-10T01:23:15.716Z,2.55
2022-09-10T01:25:54.009Z,2.63
2022-09-10T01:28:31.751Z,2.45
2022-09-10T01:31:06.528Z,3.03
2022-09-10T01:33:41.851Z,2.78
2022-09-10T01:36:15.053Z,2.65
2022-09-10T01:38:44.075Z,2.58
2022-09-10T01:41:13.907Z,2.45
2022-09-10T01:43:43.594Z,2.50
2022-09-10T01:46:29.925Z,2.90
2022-09-10T01:49:10.178Z,3.17
2022-09-10T01:51:54.976Z,2.22
2022-09-10T01:54:37.613Z,3.03
2022-09-10T01:57:16.141Z,2.67
2022-09-10T01:59:54.811Z,2.97
2022-09-10T02:02:25.963Z,2.55
2022-09-10T02:04:55.651Z,2.55
2022-09-10T02:07:26.887Z,3.20
2022-09-10T02:09:55.835Z,2.20
2022-09-10T02:12:24.723Z,2.78
2022-09-10T02:14:56.609Z,2.53
2022-09-10T02:17:31.101Z,3.08
2022-09-10T02:20:02.136Z,2.63
2022-09-10T02:22:32.785Z,2.55
2022-09-10T02:25:00.991Z,2.67
2022-09-10T02:27:30.003Z,2.75
2022-09-10T02:29:59.887Z,2.97
2022-09-10T02:32:28.277Z,2.17
2022-09-10T02:34:57.117Z,2.70
2022-09-10T02:37:25.292Z,2.33
2022-09-10T02:39:53.501Z,2.75
2022-09-10T02:42:22.222Z,2.70
2022-09-10T02:44:50.831Z,2.83
2022-09-10T02:47:20.309Z,2.88
2022-09-10T02:49:48.493Z,2.35
2022-09-10T02:52:16.708Z,2.25
2022-09-10T02:54:45.322Z,2.38
2022-09-10T02:57:13.681Z,2.35
2022-09-10T02:59:41.973Z,2.58
2022-09-10T03:02:10.154Z,2.22
2022-09-10T03:04:40.248Z,2.90
2022-09-10T03:07:08.495Z,2.90
2022-09-10T03:09:36.656Z,2.70
2022-09-10T03:12:05.260Z,3.17
2022-09-10T03:14:34.185Z,2.75
2022-09-10T03:17:03.837Z,2.78
2022-09-10T03:19:32.378Z,2.58
2022-09-10T03:22:01.844Z,2.30
2022-09-10T03:24:30.396Z,2.38
2022-09-10T03:26:58.706Z,2.45
2022-09-10T03:29:26.978Z,2.45
2022-09-10T03:31:55.372Z,3.05
2022-09-10T03:34:23.992Z,2.35
2022-09-10T03:36:52.295Z,2.80
2022-09-10T03:39:22.032Z,2.70
2022-09-10T03:41:50.316Z,3.50
2022-09-10T03:44:18.546Z,1.88
2022-09-10T03:46:48.681Z,2.20
2022-09-10T03:49:17.238Z,2.15
2022-09-10T03:51:45.489Z,2.65
2022-09-10T03:54:14.081Z,2.08
2022-09-10T03:56:44.196Z,2.22
2022-09-10T03:59:13.400Z,2.28
2022-09-10T04:01:41.820Z,2.90
2022-09-10T04:04:10.471Z,3.35
2022-09-10T04:06:38.978Z,2.60
2022-09-10T04:09:07.497Z,3.40
2022-09-10T04:11:35.959Z,2.33
2022-09-10T04:14:05.843Z,2.83
2022-09-10T04:16:34.229Z,3.28
2022-09-10T04:19:02.453Z,2.65
2022-09-10T04:21:31.556Z,2.50
2022-09-10T04:24:00.738Z,2.40
2022-09-10T04:26:29.162Z,2.10
2022-09-10T04:28:57.556Z,2.90
2022-09-10T04:31:27.121Z,2.20
2022-09-10T04:33:55.492Z,2.65
2022-09-10T04:36:23.860Z,2.63
2022-09-10T04:38:51.971Z,2.70
2022-09-10T04:41:20.154Z,2.10
2022-09-10T04:43:49.091Z,2.58
2022-09-10T04:46:17.743Z,2.60
2022-09-10T04:48:47.505Z,2.50
2022-09-10T04:51:18.155Z,2.83
2022-09-10T04:53:47.490Z,2.35
2022-09-10T04:56:15.803Z,2.55
2022-09-10T04:58:45.367Z,2.70
2022-09-10T05:01:14.325Z,2.53
2022-09-10T05:03:42.735Z,2.58
2022-09-10T05:06:12.350Z,3.33
2022-09-10T05:08:40.861Z,2.45
2022-09-10T05:11:09.025Z,3.47
2022-09-10T05:13:37.251Z,2.47
2022-09-10T05:16:05.656Z,3.58
2022-09-10T05:18:34.239Z,2.65
2022-09-10T05:21:02.568Z,2.35
2022-09-10T05:23:32.572Z,2.90
2022-09-10T05:26:00.751Z,2.40
2022-09-10T05:28:28.926Z,2.85
2022-09-10T05:30:57.382Z,2.35
2022-09-10T05:33:26.162Z,2.63
2022-09-10T05:35:54.501Z,2.92
2022-09-10T05:38:23.997Z,2.90
2022-09-10T05:40:54.015Z,3.03
2022-09-10T05:43:22.556Z,3.13
2022-09-10T05:45:51.933Z,3.10
2022-09-10T05:48:20.445Z,2.50
2022-09-10T05:50:48.602Z,3.42
2022-09-10T05:53:17.346Z,5.45
2022-09-10T05:55:46.230Z,5.32
2022-09-10T05:58:16.146Z,5.68
2022-09-10T06:00:44.298Z,4.05
2022-09-10T06:03:13.007Z,4.90
2022-09-10T06:05:41.157Z,3.78
2022-09-10T06:08:09.516Z,3.97
2022-09-10T06:10:38.237Z,3.20
2022-09-10T06:13:07.175Z,3.22
2022-09-10T06:15:37.926Z,3.63
2022-09-10T06:18:06.310Z,4.95
2022-09-10T06:20:34.672Z,4.47
2022-09-10T06:23:02.815Z,4.60
2022-09-10T06:25:31.143Z,4.05
2022-09-10T06:27:59.500Z,3.75
2022-09-10T06:30:28.292Z,4.47
2022-09-10T06:32:57.991Z,4.50
2022-09-10T06:35:27.125Z,3.50
2022-09-10T06:37:56.045Z,3.38
2022-09-10T06:40:26.561Z,3.70
2022-09-10T06:42:55.409Z,3.10
2022-09-10T06:45:24.114Z,4.15
2022-09-10T06:48:37.158Z,4.78
2022-09-10T06:50:51.577Z,3.45
2022-09-10T06:53:21.325Z,6.60
2022-09-10T06:55:50.465Z,3.22
2022-09-10T06:58:19.844Z,4.20
2022-09-10T07:00:48.548Z,4.10
2022-09-10T07:03:17.118Z,3.65
2022-09-10T07:05:47.354Z,4.13
2022-09-10T07:08:17.545Z,3.30
2022-09-10T07:10:46.652Z,4.18
2022-09-10T07:13:15.177Z,2.97
2022-09-10T07:15:47.494Z,4.40
2022-09-10T07:18:15.948Z,4.00
2022-09-10T07:20:44.561Z,4.90
2022-09-10T07:23:15.139Z,4.70
2022-09-10T07:25:43.672Z,4.43
2022-09-10T07:28:15.139Z,3.83
2022-09-10T07:30:44.192Z,5.15
2022-09-10T07:33:12.823Z,4.57
2022-09-10T07:35:41.275Z,5.22
2022-09-10T07:38:15.519Z,5.85
2022-09-10T07:40:44.812Z,4.47
2022-09-10T07:43:13.068Z,3.47
2022-09-10T07:45:42.231Z,4.70
2022-09-10T07:48:13.234Z,5.38
2022-09-10T07:50:41.463Z,4.50
2022-09-10T07:53:09.956Z,4.32
2022-09-10T07:55:40.089Z,3.67
2022-09-10T07:58:08.296Z,3.28
2022-09-10T08:00:36.835Z,3.67
2022-09-10T08:03:05.720Z,3.38
2022-09-10T08:05:33.985Z,4.32
2022-09-10T08:08:02.422Z,4.53
2022-09-10T08:10:30.684Z,3.80
2022-09-10T08:13:00.856Z,4.13
2022-09-10T08:15:29.099Z,3.97
2022-09-10T08:17:57.311Z,3.83
2022-09-10T08:20:26.660Z,3.75
2022-09-10T08:22:58.353Z,3.67
2022-09-10T08:25:26.703Z,3.33
2022-09-10T08:27:55.209Z,4.10
2022-09-10T08:30:24.784Z,4.38
2022-09-10T08:32:53.121Z,4.43
2022-09-10T08:35:21.686Z,3.70
2022-09-10T08:37:50.084Z,4.15
2022-09-10T08:40:18.480Z,4.03
2022-09-10T08:42:50.107Z,4.30
2022-09-10T08:45:23.339Z,3.70
2022-09-10T08:47:59.833Z,3.67
2022-09-10T08:50:38.714Z,3.67
2022-09-10T08:53:25.791Z,4.28
2022-09-10T08:55:58.104Z,4.10
2022-09-10T08:58:31.862Z,4.10
2022-09-10T09:01:04.803Z,4.20
2022-09-10T09:03:38.747Z,4.75
2022-09-10T09:06:12.971Z,4.65
2022-09-10T09:08:48.629Z,4.47
2022-09-10T09:11:24.012Z,5.05
2022-09-10T09:14:07.587Z,4.85
2022-09-10T09:16:48.548Z,4.53
2022-09-10T09:19:32.003Z,4.95
2022-09-10T09:22:11.816Z,4.60
2022-09-10T09:24:50.264Z,4.60
2022-09-10T09:27:22.892Z,4.97
2022-09-10T09:29:56.113Z,4.63
2022-09-10T09:32:25.977Z,4.35
2022-09-10T09:34:58.366Z,4.60
2022-09-10T09:37:29.447Z,4.80
2022-09-10T09:40:09.201Z,4.65
2022-09-10T09:42:43.352Z,4.47
2022-09-10T09:45:22.258Z,4.80
2022-09-10T09:47:51.168Z,4.82
2022-09-10T09:50:20.904Z,5.18
2022-09-10T09:52:49.777Z,4.10
2022-09-10T09:55:28.287Z,5.10
2022-09-10T09:58:30.697Z,4.68
2022-09-10T10:01:16.465Z,3.50
2022-09-10T10:03:53.469Z,4.68
2022-09-10T10:06:25.973Z,4.68
2022-09-10T10:09:00.753Z,4.97
2022-09-10T10:11:45.807Z,4.85
2022-09-10T10:14:22.945Z,5.68
2022-09-10T10:16:57.298Z,5.70
2022-09-10T10:19:34.124Z,5.57
2022-09-10T10:22:22.683Z,4.75
2022-09-10T10:24:54.036Z,5.60
2022-09-10T10:27:30.247Z,5.25
2022-09-10T10:30:01.664Z,5.50
2022-09-10T10:32:44.832Z,6.00
2022-09-10T10:35:29.354Z,5.30
2022-09-10T10:38:31.383Z,5.50
2022-09-10T10:41:13.060Z,5.20
2022-09-10T10:43:51.567Z,4.97
2022-09-10T10:46:22.405Z,4.88
2022-09-10T10:49:03.518Z,5.47
2022-09-10T10:51:42.014Z,5.50
2022-09-10T10:54:32.974Z,5.43
2022-09-10T10:57:11.361Z,5.80
2022-09-10T10:59:55.632Z,5.45
2022-09-10T11:02:41.274Z,5.70
2022-09-10T11:05:21.931Z,5.30
2022-09-10T11:07:50.719Z,5.65
2022-09-10T11:10:25.877Z,5.60
2022-09-10T11:12:58.892Z,5.32
2022-09-10T11:15:33.558Z,5.60
2022-09-10T11:18:08.603Z,5.20
2022-09-10T11:20:43.144Z,6.03
2022-09-10T11:23:22.592Z,4.95
2022-09-10T11:25:57.159Z,4.80
2022-09-10T11:28:29.126Z,5.53
2022-09-10T11:31:02.016Z,4.75
2022-09-10T11:33:36.259Z,5.35
2022-09-10T11:36:11.517Z,5.82
2022-09-10T11:38:48.218Z,5.10
2022-09-10T11:41:23.681Z,5.20
2022-09-10T11:43:58.218Z,4.90
2022-09-10T11:46:31.896Z,5.38
2022-09-10T11:49:04.023Z,5.47
2022-09-10T11:51:34.984Z,4.85
2022-09-10T11:54:05.027Z,4.80
2022-09-10T11:56:46.172Z,5.28
2022-09-10T11:59:42.577Z,5.43
2022-09-10T12:02:39.426Z,4.72
2022-09-10T12:05:19.902Z,5.30
2022-09-10T12:07:56.943Z,4.43
2022-09-10T12:10:33.144Z,5.75
2022-09-10T12:13:09.247Z,5.07
2022-09-10T12:15:38.450Z,6.55
2022-09-10T12:18:13.995Z,5.75
2022-09-10T12:20:48.822Z,5.43
2022-09-10T12:23:19.505Z,5.47
2022-09-10T12:25:58.946Z,5.38
2022-09-10T12:29:00.990Z,4.80
2022-09-10T12:31:29.315Z,5.90
2022-09-10T12:34:18.556Z,5.43
2022-09-10T12:37:23.991Z,6.10
2022-09-10T12:40:25.034Z,5.82
2022-09-10T12:42:53.591Z,5.78
2022-09-10T12:45:57.662Z,6.15
2022-09-10T12:48:27.744Z,5.30
2022-09-10T12:51:00.643Z,5.65
2022-09-10T12:54:07.162Z,4.75
2022-09-10T12:57:03.802Z,5.05
2022-09-10T13:00:13.029Z,5.03
2022-09-10T13:02:52.056Z,5.10
2022-09-10T13:05:27.070Z,5.38
2022-09-10T13:08:08.965Z,5.05
2022-09-10T13:10:37.625Z,5.35
2022-09-10T13:13:09.530Z,5.63
2022-09-10T13:15:41.632Z,5.55
2022-09-10T13:18:28.228Z,5.95
2022-09-10T13:20:58.680Z,5.65
2022-09-10T13:23:48.777Z,6.20
2022-09-10T13:26:49.488Z,6.55
2022-09-10T13:29:34.428Z,5.93
2022-09-10T13:32:08.125Z,6.18
2022-09-10T13:35:05.685Z,6.28
2022-09-10T13:38:01.393Z,6.50
2022-09-10T13:40:46.737Z,6.80
2022-09-10T13:43:30.788Z,6.65
2022-09-10T13:46:03.826Z,6.05
2022-09-10T13:48:40.697Z,6.38
2022-09-10T13:51:23.379Z,6.57
2022-09-10T13:53:53.878Z,6.68
2022-09-10T13:56:26.363Z,6.35
2022-09-10T13:59:00.565Z,6.07
2022-09-10T14:01:49.351Z,6.47
2022-09-10T14:04:28.390Z,6.45
2022-09-10T14:07:03.917Z,6.85
2022-09-10T14:09:34.648Z,6.38
2022-09-10T14:12:05.455Z,7.00
2022-09-10T14:14:39.455Z,6.47
2022-09-10T14:17:13.096Z,7.15
2022-09-10T14:19:45.890Z,6.47
2022-09-10T14:22:17.323Z,6.63
2022-09-10T14:24:52.559Z,6.75
2022-09-10T14:27:25.949Z,6.95
2022-09-10T14:29:56.374Z,6.68
2022-09-10T14:32:30.910Z,6.90
2022-09-10T14:34:59.726Z,7.07
2022-09-10T14:37:33.768Z,6.25
2022-09-10T14:40:16.789Z,6.57
2022-09-10T14:42:45.654Z,6.47
2022-09-10T14:45:39.404Z,7.70
2022-09-10T14:48:33.554Z,6.82
2022-09-10T14:51:20.498Z,7.35
2022-09-10T14:53:53.000Z,6.88
2022-09-10T14:56:28.257Z,7.32
2022-09-10T14:59:00.469Z,7.78
2022-09-10T15:01:29.810Z,8.20
2022-09-10T15:03:59.343Z,8.70
2022-09-10T15:06:27.749Z,9.65
2022-09-10T15:08:57.119Z,9.38
2022-09-10T15:11:29.014Z,9.18
2022-09-10T15:13:59.300Z,9.23
2022-09-10T15:16:28.258Z,8.00
2022-09-10T15:18:58.199Z,8.77
2022-09-10T15:21:27.547Z,8.30
2022-09-10T15:23:56.369Z,7.70
2022-09-10T15:26:26.164Z,8.70
2022-09-10T15:28:54.414Z,8.35
2022-09-10T15:31:23.340Z,8.13
2022-09-10T15:33:54.391Z,7.50
2022-09-10T15:36:22.778Z,8.32
2022-09-10T15:38:52.435Z,7.00
2022-09-10T15:41:21.020Z,6.10
2022-09-10T15:43:50.658Z,6.57
2022-09-10T15:46:21.012Z,5.63
2022-09-10T15:48:49.985Z,6.30
2022-09-10T15:51:21.443Z,6.10
2022-09-10T15:53:50.736Z,6.53
2022-09-10T15:56:20.399Z,6.95
2022-09-10T15:58:55.488Z,7.10
2022-09-10T16:01:25.108Z,7.07
2022-09-10T16:03:56.681Z,7.82
2022-09-10T16:06:27.329Z,7.30
2022-09-10T16:08:57.837Z,8.43
2022-09-10T16:11:26.445Z,8.18
2022-09-10T16:14:02.185Z,8.13
2022-09-10T16:16:33.057Z,8.27
2022-09-10T16:19:01.789Z,7.05
2022-09-10T16:21:32.160Z,9.40
2022-09-10T16:24:02.243Z,8.80
2022-09-10T16:26:31.913Z,8.30
2022-09-10T16:29:02.951Z,8.13
2022-09-10T16:31:32.346Z,8.00
2022-09-10T16:34:03.567Z,7.72
2022-09-10T16:36:33.016Z,8.20
2022-09-10T16:39:02.678Z,7.63
2022-09-10T16:41:32.961Z,6.63
2022-09-10T16:44:02.809Z,6.03
2022-09-10T16:46:31.289Z,5.88
2022-09-10T16:48:59.760Z,4.88
2022-09-10T16:51:29.085Z,3.63
2022-09-10T16:54:02.300Z,3.42
2022-09-10T16:56:33.764Z,4.38
2022-09-10T16:59:03.704Z,4.00
2022-09-10T17:01:32.137Z,4.32
2022-09-10T17:04:00.766Z,4.20
2022-09-10T17:06:29.819Z,2.35
2022-09-10T17:08:59.831Z,2.63
2022-09-10T17:11:31.123Z,2.60
2022-09-10T17:14:01.286Z,2.40
2022-09-10T17:16:32.767Z,2.35
2022-09-10T17:19:03.211Z,2.67
2022-09-10T17:21:34.313Z,2.70
2022-09-10T17:24:04.025Z,2.50
2022-09-10T17:26:33.807Z,3.20
2022-09-10T17:29:03.146Z,3.00
2022-09-10T17:31:45.878Z,2.63
2022-09-10T17:34:15.447Z,3.28
2022-09-10T17:36:45.372Z,2.80
2022-09-10T17:39:14.051Z,3.47
2022-09-10T17:41:43.025Z,3.20
2022-09-10T17:44:12.521Z,3.35
2022-09-10T17:46:42.761Z,2.83
2022-09-10T17:49:14.868Z,2.83
2022-09-10T17:51:43.897Z,3.33
2022-09-10T17:54:18.297Z,3.22
2022-09-10T17:56:48.385Z,3.03
2022-09-10T17:59:16.722Z,3.17
2022-09-10T18:01:46.380Z,3.35
2022-09-10T18:04:15.879Z,3.13
2022-09-10T18:06:47.824Z,4.28
2022-09-10T18:09:18.665Z,4.10
2022-09-10T18:11:47.426Z,3.63
2022-09-10T18:14:18.660Z,3.80
2022-09-10T18:16:48.277Z,4.13
2022-09-10T18:19:18.047Z,4.18
2022-09-10T18:21:47.320Z,4.43
2022-09-10T18:24:17.577Z,4.00
2022-09-10T18:26:47.772Z,3.78
2022-09-10T18:29:18.973Z,4.35
2022-09-10T18:31:50.122Z,4.05
2022-09-10T18:34:23.165Z,4.63
2022-09-10T18:36:54.449Z,3.88
2022-09-10T18:39:24.174Z,3.20
2022-09-10T18:41:52.448Z,3.30
2022-09-10T18:44:23.079Z,3.25
2022-09-10T18:46:53.754Z,3.83
2022-09-10T18:49:24.500Z,2.58
2022-09-10T18:51:53.755Z,3.10
2022-09-10T18:54:23.237Z,2.97
2022-09-10T18:56:53.317Z,4.80
2022-09-10T18:59:23.268Z,3.35
2022-09-10T19:01:55.793Z,4.45
2022-09-10T19:04:26.435Z,2.97
2022-09-10T19:06:55.634Z,2.75
2022-09-10T19:09:25.082Z,3.60
2022-09-10T19:11:55.376Z,3.03
2022-09-10T19:14:26.370Z,2.78
2022-09-10T19:16:57.502Z,2.60
2022-09-10T19:19:27.477Z,2.35
2022-09-10T19:21:59.406Z,3.05
2022-09-10T19:24:50.981Z,3.28
2022-09-10T19:27:16.961Z,2.25
2022-09-10T19:29:47.268Z,2.20
2022-09-10T19:32:17.256Z,3.35
2022-09-10T19:34:46.047Z,2.22
2022-09-10T19:37:14.655Z,2.47
2022-09-10T19:39:44.429Z,2.20
2022-09-10T19:42:13.329Z,2.58
2022-09-10T19:44:41.839Z,1.90
2022-09-10T19:47:10.121Z,2.10
2022-09-10T19:49:40.112Z,2.20
2022-09-10T19:52:08.340Z,2.00
2022-09-10T19:54:36.746Z,1.90
2022-09-10T19:57:05.421Z,2.55
2022-09-10T19:59:33.633Z,1.95
2022-09-10T20:02:02.097Z,2.45
2022-09-10T20:04:30.734Z,2.50
2022-09-10T20:07:00.454Z,2.25
2022-09-10T20:09:28.905Z,2.78
2022-09-10T20:11:57.197Z,2.80
2022-09-10T20:14:26.162Z,3.22
2022-09-10T20:16:54.674Z,2.63
2022-09-10T20:19:22.949Z,2.58
2022-09-10T20:21:51.817Z,2.90
2022-09-10T20:24:22.127Z,3.00
2022-09-10T20:26:50.552Z,2.92
2022-09-10T20:29:19.524Z,2.95
2022-09-10T20:31:48.682Z,3.25
2022-09-10T20:34:19.455Z,3.25
2022-09-10T20:36:48.717Z,3.60
2022-09-10T20:39:18.220Z,3.78
2022-09-10T20:41:48.274Z,4.55
2022-09-10T20:44:18.343Z,4.00
2022-09-10T20:46:46.705Z,4.20
2022-09-10T20:49:16.515Z,4.07
2022-09-10T20:51:45.776Z,3.88
2022-09-10T20:54:17.248Z,3.80
2022-09-10T20:56:45.944Z,4.32
2022-09-10T20:59:16.835Z,3.88
2022-09-10T21:01:46.453Z,4.28
2022-09-10T21:04:15.217Z,4.53
2022-09-10T21:06:43.776Z,4.95
2022-09-10T21:09:13.023Z,5.03
2022-09-10T21:11:41.356Z,6.03
2022-09-10T21:14:09.989Z,5.78
2022-09-10T21:16:41.356Z,5.97
2022-09-10T21:19:11.860Z,6.13
2022-09-10T21:21:41.268Z,6.70
2022-09-10T21:24:13.073Z,6.88
2022-09-10T21:26:43.649Z,5.80
2022-09-10T21:29:14.355Z,5.82
2022-09-10T21:31:45.463Z,6.80
2022-09-10T21:34:14.766Z,5.82
2022-09-10T21:36:43.692Z,6.05
2022-09-10T21:39:14.840Z,6.15
2022-09-10T21:41:45.253Z,6.50
2022-09-10T21:44:15.524Z,6.43
2022-09-10T21:46:46.013Z,5.80
2022-09-10T21:49:14.724Z,6.00
2022-09-10T21:51:43.267Z,6.10
2022-09-10T21:54:15.523Z,5.45
2022-09-10T21:56:43.906Z,5.90
2022-09-10T21:59:13.071Z,5.90
2022-09-10T22:01:43.260Z,5.78
2022-09-10T22:04:13.795Z,6.07
2022-09-10T22:06:42.066Z,5.68
2022-09-10T22:09:12.432Z,5.88
2022-09-10T22:11:42.399Z,6.00
2022-09-10T22:14:15.125Z,5.35
2022-09-10T22:16:44.013Z,5.75
2022-09-10T22:19:18.560Z,6.05
2022-09-10T22:21:47.312Z,5.13
2022-09-10T22:24:18.446Z,5.68
2022-09-10T22:26:47.520Z,5.35
2022-09-10T22:29:20.495Z,5.57
2022-09-10T22:31:49.626Z,6.03
2022-09-10T22:34:20.695Z,5.85
2022-09-10T22:36:49.638Z,5.70
2022-09-10T22:39:19.560Z,5.78
2022-09-10T22:41:48.899Z,6.60
2022-09-10T22:44:19.227Z,6.35
2022-09-10T22:46:47.801Z,6.20
2022-09-10T22:49:17.203Z,6.63
2022-09-10T22:51:46.825Z,6.40
2022-09-10T22:54:16.607Z,6.45
2022-09-10T22:56:45.468Z,5.90
2022-09-10T22:59:14.946Z,6.03
2022-09-10T23:01:47.330Z,6.85
2022-09-10T23:04:16.538Z,5.82
2022-09-10T23:06:45.966Z,5.85
2022-09-10T23:09:16.016Z,5.80
2022-09-10T23:11:45.118Z,6.07
2022-09-10T23:14:15.616Z,6.30
2022-09-10T23:16:46.205Z,6.10
2022-09-10T23:19:16.109Z,5.85
2022-09-10T23:21:48.734Z,5.97
2022-09-10T23:24:20.295Z,5.88
2022-09-10T23:26:48.661Z,5.78
2022-09-10T23:29:17.739Z,5.78
2022-09-10T23:31:47.688Z,6.07
2022-09-10T23:34:18.133Z,6.28
2022-09-10T23:36:48.963Z,5.70
2022-09-10T23:39:19.754Z,5.70
2022-09-10T23:41:48.208Z,5.32
2022-09-10T23:44:16.924Z,4.93
2022-09-10T23:46:45.740Z,5.25
2022-09-10T23:49:14.203Z,5.13
2022-09-10T23:51:42.577Z,5.40
2022-09-10T23:54:13.101Z,5.38
2022-09-10T23:56:41.685Z,6.07
2022-09-10T23:59:11.004Z,6.10
